Time;durP1;ratioP1;P1;durP2;ratioP2;P2;SDS_P1;SDS_P2;PMS_P1;PMS_P2;Temp;Humidity;BMP_temperature;BMP_pressure;BME280_temperature;BME280_humidity;BME280_pressure;Samples;Min_cycle;Max_cycle;Signal;HPM_P1;HPM_P2
2021/12/17 00:04:51;;;;;;;17.05;7.68;;;8.00;99.90;;;;;;5035044;28;20554;-71
2021/12/17 00:07:18;;;;;;;17.88;8.25;;;7.30;99.90;;;;;;5036363;28;20053;-73
2021/12/17 00:09:46;;;;;;;16.60;7.82;;;8.00;99.90;;;;;;5036657;28;20047;-72
2021/12/17 00:12:16;;;;;;;18.35;8.50;;;8.00;99.90;;;;;;5018273;28;20080;-72
2021/12/17 00:14:46;;;;;;;20.85;9.27;;;8.00;99.90;;;;;;5037662;28;20064;-73
2021/12/17 00:17:16;;;;;;;23.40;8.85;;;8.00;99.90;;;;;;5034824;28;20041;-72
2021/12/17 00:49:22;;;;;;;23.45;9.65;;;8.00;99.90;;;;;;5012263;28;20077;-72
2021/12/17 00:52:02;;;;;;;20.60;9.02;;;8.00;99.90;;;;;;5038603;28;20053;-72
2021/12/17 00:54:41;;;;;;;23.83;9.75;;;8.00;99.90;;;;;;5073073;28;20080;-72
2021/12/17 00:57:14;;;;;;;23.38;9.55;;;8.00;99.90;;;;;;5024466;28;20059;-72
2021/12/17 00:59:44;;;;;;;23.48;9.10;;;8.00;99.90;;;;;;5071206;28;20868;-72
2021/12/17 01:02:12;;;;;;;20.42;8.50;;;8.10;99.90;;;;;;5040759;28;20045;-72
2021/12/17 01:04:44;;;;;;;23.15;9.13;;;8.00;99.90;;;;;;5055264;28;20137;-71
2021/12/17 01:07:12;;;;;;;24.08;8.95;;;8.00;99.90;;;;;;5056323;28;20045;-73
2021/12/17 01:09:38;;;;;;;23.42;8.50;;;8.00;99.90;;;;;;5023393;28;20065;-73
2021/12/17 01:12:05;;;;;;;21.42;9.00;;;8.00;99.90;;;;;;5054256;28;20063;-72
2021/12/17 01:14:32;;;;;;;19.60;8.68;;;8.00;99.90;;;;;;5024268;28;20064;-72
2021/12/17 01:16:59;;;;;;;20.92;9.23;;;8.00;99.90;;;;;;5054330;28;20124;-72
2021/12/17 01:24:40;;;;;;;22.48;9.13;;;7.90;99.90;;;;;;5072436;28;20042;-72
2021/12/17 01:35:24;;;;;;;22.85;7.70;;;7.90;99.90;;;;;;5039817;28;20053;-71
2021/12/17 01:43:03;;;;;;;23.63;9.07;;;7.90;99.90;;;;;;5037819;28;20057;-73
2021/12/17 01:45:34;;;;;;;24.70;9.70;;;7.90;99.90;;;;;;4990901;28;20045;-72
2021/12/17 01:48:02;;;;;;;24.88;9.07;;;7.90;99.90;;;;;;5023674;28;20563;-72
2021/12/17 01:56:17;;;;;;;25.83;9.32;;;7.90;99.90;;;;;;5038534;28;20041;-71
2021/12/17 02:01:28;;;;;;;20.15;8.18;;;7.90;99.90;;;;;;5039617;28;20041;-71
2021/12/17 02:03:55;;;;;;;23.20;8.90;;;8.00;99.90;;;;;;5053706;28;20069;-71
2021/12/17 02:06:23;;;;;;;21.20;8.20;;;8.00;99.90;;;;;;5056423;28;20049;-71
2021/12/17 02:08:50;;;;;;;27.27;9.05;;;8.00;99.90;;;;;;5036474;28;20049;-71
2021/12/17 02:19:42;;;;;;;23.33;8.70;;;8.00;99.90;;;;;;5039827;28;20132;-70
2021/12/17 02:28:44;;;;;;;21.75;8.57;;;7.90;99.90;;;;;;5038789;28;19928;-70
2021/12/17 02:32:59;;;;;;;21.08;8.50;;;8.00;99.90;;;;;;5039016;28;20072;-70
2021/12/17 02:35:41;;;;;;;24.70;8.98;;;8.00;99.90;;;;;;5038260;28;20044;-70
2021/12/17 02:38:08;;;;;;;26.10;9.95;;;8.00;99.90;;;;;;5037332;28;20402;-70
2021/12/17 02:45:44;;;;;;;24.38;8.82;;;8.00;99.90;;;;;;5021529;28;20050;-70
2021/12/17 02:48:12;;;;;;;27.33;9.32;;;8.00;99.90;;;;;;5038458;28;20103;-70
2021/12/17 02:50:58;;;;;;;20.75;7.85;;;8.10;99.90;;;;;;5035373;28;20052;-70
2021/12/17 02:53:26;;;;;;;24.13;9.43;;;8.00;99.90;;;;;;5038777;28;20052;-70
2021/12/17 02:56:02;;;;;;;21.98;8.43;;;8.00;99.90;;;;;;5037435;28;20308;-70
2021/12/17 02:58:30;;;;;;;22.85;9.02;;;8.00;99.90;;;;;;5037916;28;20049;-70
2021/12/17 03:00:58;;;;;;;25.95;9.15;;;8.00;99.90;;;;;;5038075;28;20048;-70
2021/12/17 03:03:31;;;;;;;22.95;9.25;;;8.00;99.90;;;;;;5036177;28;20428;-70
2021/12/17 03:05:57;;;;;;;20.27;7.65;;;8.00;99.90;;;;;;5040022;28;20049;-70
2021/12/17 03:08:23;;;;;;;23.75;8.07;;;8.00;99.90;;;;;;5052091;28;20123;-70
2021/12/17 03:10:50;;;;;;;21.98;8.57;;;7.90;99.90;;;;;;5038073;28;20049;-70
2021/12/17 03:13:19;;;;;;;22.58;8.73;;;8.00;99.90;;;;;;5035746;28;20135;-70
2021/12/17 03:23:55;;;;;;;23.75;8.90;;;8.00;99.90;;;;;;5039505;28;20045;-70
2021/12/17 03:26:23;;;;;;;23.63;8.90;;;8.00;99.90;;;;;;5036796;28;20064;-70
2021/12/17 03:28:51;;;;;;;24.25;8.18;;;8.00;99.90;;;;;;5052985;28;20053;-70
2021/12/17 03:31:18;;;;;;;22.58;8.15;;;8.00;99.90;;;;;;5038158;28;20081;-70
2021/12/17 03:33:48;;;;;;;23.05;8.60;;;8.00;99.90;;;;;;5036741;28;20091;-70
2021/12/17 03:36:16;;;;;;;23.60;8.43;;;8.00;99.90;;;;;;5037932;28;20045;-70
2021/12/17 03:38:44;;;;;;;23.63;8.82;;;8.00;99.90;;;;;;5036744;28;20048;-70
2021/12/17 03:41:20;;;;;;;24.45;9.52;;;8.00;99.90;;;;;;5036946;28;20112;-70
2021/12/17 03:43:48;;;;;;;21.00;7.90;;;8.00;99.90;;;;;;5021349;28;20172;-69
2021/12/17 03:46:15;;;;;;;24.48;8.73;;;8.00;99.90;;;;;;5036807;28;20045;-70
2021/12/17 03:48:42;;;;;;;22.77;9.00;;;8.10;99.90;;;;;;5039152;28;20041;-70
2021/12/17 03:51:14;;;;;;;25.80;9.15;;;8.00;99.90;;;;;;5034303;28;20045;-70
2021/12/17 03:53:43;;;;;;;25.92;9.20;;;8.10;99.90;;;;;;5071244;28;20052;-70
2021/12/17 03:56:09;;;;;;;22.92;8.38;;;8.10;99.90;;;;;;5036262;28;20067;-70
2021/12/17 03:58:35;;;;;;;24.48;9.23;;;8.10;99.90;;;;;;5036625;28;20888;-70
2021/12/17 04:01:01;;;;;;;22.35;8.65;;;8.10;99.90;;;;;;5037712;28;20141;-70
2021/12/17 04:03:27;;;;;;;21.55;8.25;;;8.10;99.90;;;;;;5039524;28;20046;-70
2021/12/17 04:05:53;;;;;;;20.42;8.05;;;8.10;99.90;;;;;;5025276;28;20583;-70
2021/12/17 04:08:18;;;;;;;20.75;8.27;;;8.10;99.90;;;;;;5040126;28;20049;-70
2021/12/17 04:10:48;;;;;;;21.02;8.75;;;8.00;99.90;;;;;;5042818;28;20120;-70
2021/12/17 04:14:00;;;;;;;21.23;8.50;;;8.00;99.90;;;;;;5023733;28;20068;-70
2021/12/17 04:16:08;;;;;;;20.27;8.82;;;8.00;99.90;;;;;;5037137;28;20057;-71
2021/12/17 04:18:42;;;;;;;21.42;8.68;;;8.00;99.90;;;;;;5041642;28;20080;-70
2021/12/17 04:21:15;;;;;;;21.63;8.02;;;8.00;99.90;;;;;;5038375;28;20088;-71
2021/12/17 04:23:45;;;;;;;20.65;8.13;;;8.00;99.90;;;;;;5043044;28;20045;-70
2021/12/17 04:26:12;;;;;;;19.60;7.45;;;8.00;99.90;;;;;;5039606;28;20057;-70
2021/12/17 04:28:43;;;;;;;16.52;7.20;;;7.90;99.90;;;;;;5056320;28;20049;-70
2021/12/17 04:31:09;;;;;;;22.38;7.78;;;7.90;99.90;;;;;;5040983;28;20057;-70
2021/12/17 04:33:37;;;;;;;19.08;7.80;;;7.90;99.90;;;;;;5038971;28;20045;-70
2021/12/17 04:36:03;;;;;;;20.83;7.90;;;7.90;99.90;;;;;;5024857;28;20081;-70
2021/12/17 04:38:29;;;;;;;23.48;8.25;;;7.80;99.90;;;;;;5054717;28;20068;-71
2021/12/17 04:41:01;;;;;;;24.25;8.48;;;7.90;99.90;;;;;;5040701;28;20045;-71
2021/12/17 04:44:13;;;;;;;21.20;8.13;;;7.90;99.90;;;;;;5040107;28;20049;-70
2021/12/17 04:46:26;;;;;;;24.45;9.52;;;7.90;99.90;;;;;;5035564;28;20077;-71
2021/12/17 04:57:27;;;;;;;24.52;8.75;;;7.80;99.90;;;;;;5040713;28;20077;-70
2021/12/17 04:59:58;;;;;;;23.48;8.93;;;7.80;99.90;;;;;;5039448;28;20105;-71
2021/12/17 05:02:23;;;;;;;25.13;9.52;;;7.80;99.90;;;;;;5042208;28;20124;-71
2021/12/17 05:04:49;;;;;;;21.95;7.93;;;7.90;99.90;;;;;;5039145;28;20159;-71
2021/12/17 05:07:16;;;;;;;20.05;8.65;;;7.80;99.90;;;;;;5039130;28;20049;-71
2021/12/17 05:09:51;;;;;;;20.90;8.32;;;7.80;99.90;;;;;;5039885;28;20053;-71
2021/12/17 05:20:48;;;;;;;17.35;6.78;;;7.90;99.90;;;;;;5039194;28;20592;-70
2021/12/17 05:23:22;;;;;;;17.92;7.00;;;7.90;99.90;;;;;;5005063;28;20109;-70
2021/12/17 05:25:48;;;;;;;15.65;5.95;;;7.90;99.90;;;;;;5034908;28;20053;-71
2021/12/17 05:28:14;;;;;;;13.40;5.90;;;7.90;99.90;;;;;;5036550;28;20486;-71
2021/12/17 05:30:45;;;;;;;14.43;5.82;;;7.90;99.90;;;;;;5003172;28;20118;-70
2021/12/17 05:33:12;;;;;;;15.70;5.72;;;7.80;99.90;;;;;;5036595;28;20069;-71
2021/12/17 05:35:38;;;;;;;18.92;6.95;;;7.80;99.90;;;;;;5039960;28;20084;-71
2021/12/17 05:38:04;;;;;;;17.33;6.40;;;7.80;99.90;;;;;;5037386;28;20095;-71
2021/12/17 05:40:30;;;;;;;20.08;7.65;;;7.80;99.90;;;;;;5039414;28;20046;-71
2021/12/17 05:42:59;;;;;;;18.35;6.05;;;7.80;99.90;;;;;;5037167;28;20117;-71
2021/12/17 05:48:21;;;;;;;17.63;6.82;;;7.80;99.90;;;;;;5038679;28;20072;-71
2021/12/17 05:50:49;;;;;;;16.67;6.85;;;7.80;99.90;;;;;;5020648;28;20112;-71
2021/12/17 05:53:16;;;;;;;14.50;6.07;;;7.70;99.90;;;;;;5039955;28;20084;-71
2021/12/17 05:55:42;;;;;;;16.10;6.47;;;7.80;99.90;;;;;;5070534;28;20140;-71
2021/12/17 05:58:09;;;;;;;15.65;7.22;;;7.70;99.90;;;;;;5039636;28;20049;-71
2021/12/17 06:00:35;;;;;;;17.80;6.88;;;7.70;99.90;;;;;;5021864;28;20050;-71
2021/12/17 06:03:02;;;;;;;13.80;5.72;;;7.70;99.90;;;;;;5071542;28;20053;-71
2021/12/17 06:05:29;;;;;;;16.75;6.30;;;7.70;99.90;;;;;;5039355;28;20049;-71
2021/12/17 06:07:56;;;;;;;13.48;5.65;;;8.40;99.90;;;;;;5004184;28;20034;-71
2021/12/17 06:10:22;;;;;;;15.90;6.05;;;7.70;99.90;;;;;;5022557;28;20591;-71
2021/12/17 06:12:48;;;;;;;13.68;5.65;;;7.70;99.90;;;;;;5052738;28;20053;-71
2021/12/17 06:15:16;;;;;;;15.10;5.53;;;7.70;99.90;;;;;;5022762;28;20645;-72
2021/12/17 06:17:43;;;;;;;13.48;5.65;;;7.70;99.90;;;;;;5071482;28;20545;-71
2021/12/17 06:20:11;;;;;;;16.00;5.53;;;7.70;99.90;;;;;;5054635;28;20045;-72
2021/12/17 06:22:37;;;;;;;12.35;5.28;;;7.70;99.90;;;;;;5038530;28;20045;-72
2021/12/17 06:25:04;;;;;;;16.33;5.50;;;7.70;99.90;;;;;;5019039;28;20052;-72
2021/12/17 06:27:29;;;;;;;10.65;4.57;;;7.70;99.90;;;;;;5022874;28;20109;-72
2021/12/17 06:29:55;;;;;;;16.98;5.88;;;7.70;99.90;;;;;;5036185;28;20084;-71
2021/12/17 06:32:21;;;;;;;14.32;6.30;;;7.60;99.90;;;;;;5006183;28;20049;-71
2021/12/17 06:34:48;;;;;;;14.98;6.10;;;7.60;99.90;;;;;;5037213;28;20071;-70
2021/12/17 06:37:17;;;;;;;11.50;5.13;;;7.60;99.90;;;;;;5037535;28;20441;-71
2021/12/17 06:39:45;;;;;;;15.55;5.40;;;7.60;99.90;;;;;;5039623;28;20097;-71
2021/12/17 06:42:11;;;;;;;11.80;5.55;;;7.60;99.90;;;;;;5036384;28;20184;-72
2021/12/17 06:44:38;;;;;;;13.55;5.68;;;7.60;99.90;;;;;;5022536;28;20492;-71
2021/12/17 07:10:58;;;;;;;16.60;6.00;;;7.60;99.90;;;;;;5023665;28;20049;-71
2021/12/17 07:21:53;;;;;;;11.13;5.45;;;7.50;99.90;;;;;;5069034;28;20592;-71
2021/12/17 07:40:06;;;;;;;15.25;6.20;;;7.60;99.90;;;;;;5021116;28;20061;-71
2021/12/17 07:42:32;;;;;;;16.48;6.90;;;7.60;99.90;;;;;;5035109;28;20407;-70
2021/12/17 07:44:58;;;;;;;18.63;7.47;;;7.60;99.90;;;;;;4988840;28;20051;-70
2021/12/17 07:47:25;;;;;;;17.95;8.23;;;7.60;99.90;;;;;;5035730;28;20056;-70
2021/12/17 07:49:51;;;;;;;16.10;7.68;;;7.50;99.90;;;;;;5036734;28;20092;-70
2021/12/17 07:52:17;;;;;;;12.93;6.38;;;7.60;99.90;;;;;;5037684;28;20044;-70
2021/12/17 07:54:42;;;;;;;18.77;7.10;;;7.70;99.90;;;;;;5018657;28;20044;-71
2021/12/17 07:57:09;;;;;;;14.10;6.97;;;7.60;99.90;;;;;;5072215;28;20071;-71
2021/12/17 07:59:35;;;;;;;15.75;6.38;;;7.60;99.90;;;;;;5068933;28;20599;-70
2021/12/17 08:02:01;;;;;;;18.13;7.30;;;7.70;99.90;;;;;;5054597;28;20041;-71
2021/12/17 08:04:27;;;;;;;15.32;6.97;;;7.70;99.90;;;;;;5019105;28;20100;-70
2021/12/17 08:06:52;;;;;;;16.40;6.35;;;7.70;99.90;;;;;;5036961;28;20041;-70
2021/12/17 08:09:21;;;;;;;14.50;6.18;;;7.70;99.90;;;;;;5036621;28;20050;-70
2021/12/17 08:11:54;;;;;;;15.13;6.47;;;7.70;99.90;;;;;;5019339;28;20105;-71
2021/12/17 08:14:20;;;;;;;14.68;5.97;;;7.70;99.90;;;;;;5037181;28;20137;-70
2021/12/17 08:17:39;;;;;;;14.52;5.97;;;7.70;99.90;;;;;;5033993;28;20049;-71
2021/12/17 08:32:40;;;;;;;17.08;6.20;;;7.80;99.90;;;;;;5036897;28;20409;-71
2021/12/17 08:35:07;;;;;;;16.40;7.00;;;7.80;99.90;;;;;;5032001;28;20054;-70
2021/12/17 08:37:33;;;;;;;17.27;6.88;;;7.80;99.90;;;;;;5032955;28;20042;-71
2021/12/17 08:39:59;;;;;;;17.35;7.15;;;8.10;99.90;;;;;;5070759;28;20050;-71
2021/12/17 08:42:25;;;;;;;17.98;7.82;;;7.90;99.90;;;;;;5033296;28;20113;-71
2021/12/17 08:44:51;;;;;;;17.23;8.10;;;7.90;99.90;;;;;;5036926;28;20057;-71
2021/12/17 08:47:17;;;;;;;16.73;6.97;;;7.90;99.90;;;;;;5034229;28;20092;-71
2021/12/17 08:49:44;;;;;;;17.00;6.68;;;7.90;99.90;;;;;;5038880;28;20053;-72
2021/12/17 08:52:10;;;;;;;18.33;7.13;;;7.90;99.90;;;;;;5023411;28;20079;-71
2021/12/17 08:54:37;;;;;;;14.45;6.53;;;7.90;99.90;;;;;;5037019;28;20061;-71
2021/12/17 08:57:03;;;;;;;17.80;6.65;;;7.90;99.90;;;;;;5039426;28;20113;-71
2021/12/17 08:59:29;;;;;;;14.98;7.35;;;7.90;99.90;;;;;;5021076;28;20595;-71
2021/12/17 09:01:56;;;;;;;20.15;6.25;;;7.90;99.90;;;;;;5007282;28;20042;-72
2021/12/17 09:04:22;;;;;;;18.58;7.05;;;8.00;99.90;;;;;;5071600;28;20079;-71
2021/12/17 09:06:49;;;;;;;17.73;7.30;;;8.00;99.90;;;;;;5039438;28;20073;-71
2021/12/17 09:09:19;;;;;;;16.25;6.72;;;8.00;99.90;;;;;;5039201;28;20053;-70
2021/12/17 09:11:45;;;;;;;17.73;7.28;;;8.00;99.90;;;;;;5021727;28;20593;-70
2021/12/17 09:14:12;;;;;;;14.80;6.82;;;8.00;99.90;;;;;;5056687;28;20103;-71
2021/12/17 09:16:38;;;;;;;16.25;7.45;;;8.00;99.90;;;;;;5020425;28;20544;-71
2021/12/17 09:19:07;;;;;;;16.73;7.93;;;8.00;99.90;;;;;;5039881;28;20053;-70
2021/12/17 09:21:33;;;;;;;15.07;7.57;;;8.00;99.90;;;;;;5037058;28;20088;-69
2021/12/17 09:23:58;;;;;;;17.50;7.35;;;8.00;99.90;;;;;;5032272;28;20037;-69
2021/12/17 09:26:25;;;;;;;20.05;8.35;;;8.10;99.90;;;;;;5063855;28;20162;-71
2021/12/17 09:28:51;;;;;;;20.30;7.70;;;8.10;99.90;;;;;;5055529;28;20052;-70
2021/12/17 09:31:19;;;;;;;17.10;7.32;;;8.10;99.90;;;;;;5031512;28;20058;-69
2021/12/17 09:33:49;;;;;;;17.92;7.60;;;8.10;99.90;;;;;;5024450;28;20077;-70
2021/12/17 09:36:15;;;;;;;15.68;6.93;;;8.10;99.90;;;;;;5071571;28;20080;-70
2021/12/17 09:38:41;;;;;;;21.45;7.13;;;8.10;99.90;;;;;;5023796;28;20053;-69
2021/12/17 09:41:07;;;;;;;18.23;8.40;;;8.10;99.90;;;;;;5060383;28;20070;-69
2021/12/17 09:43:35;;;;;;;19.90;8.32;;;8.10;99.90;;;;;;5029918;28;20064;-69
2021/12/17 09:46:04;;;;;;;18.02;7.68;;;8.10;99.90;;;;;;5030202;28;20104;-70
2021/12/17 09:48:31;;;;;;;17.58;7.57;;;8.10;99.90;;;;;;5060555;28;20050;-69
2021/12/17 09:50:57;;;;;;;19.23;8.00;;;8.20;99.90;;;;;;5029844;28;20053;-70
2021/12/17 09:53:23;;;;;;;18.60;8.45;;;8.20;99.90;;;;;;5029078;28;20052;-69
2021/12/17 09:55:50;;;;;;;18.70;8.15;;;8.20;99.90;;;;;;5060892;28;20050;-69
2021/12/17 09:58:16;;;;;;;21.08;8.00;;;8.30;99.90;;;;;;5033600;28;20117;-69
2021/12/17 10:00:42;;;;;;;17.67;7.72;;;8.20;99.90;;;;;;5051010;28;20070;-69
2021/12/17 10:03:08;;;;;;;18.48;8.20;;;8.20;99.90;;;;;;5049988;28;20064;-69
2021/12/17 10:05:37;;;;;;;18.00;8.23;;;8.30;99.90;;;;;;5020993;28;20094;-70
2021/12/17 10:08:16;;;;;;;15.75;7.72;;;8.30;99.90;;;;;;5017560;28;20053;-70
2021/12/17 10:10:59;;;;;;;18.08;8.35;;;8.30;99.90;;;;;;5061186;28;20052;-70
2021/12/17 10:13:31;;;;;;;14.95;7.55;;;8.30;99.90;;;;;;5066428;28;20049;-69
2021/12/17 10:16:09;;;;;;;17.95;8.38;;;8.40;99.90;;;;;;5019705;28;20049;-70
2021/12/17 10:18:41;;;;;;;17.40;8.70;;;8.40;99.90;;;;;;5071667;28;20524;-70
2021/12/17 10:21:18;;;;;;;17.58;7.45;;;8.40;99.90;;;;;;5068182;28;20049;-70
2021/12/17 10:23:45;;;;;;;18.20;8.07;;;8.40;99.90;;;;;;5021765;28;20057;-70
2021/12/17 10:26:13;;;;;;;15.90;7.38;;;8.50;99.90;;;;;;5071207;28;20418;-70
2021/12/17 10:28:52;;;;;;;15.55;7.18;;;8.50;99.90;;;;;;5070541;28;20390;-70
2021/12/17 10:31:18;;;;;;;15.68;7.60;;;8.50;99.90;;;;;;5038326;28;20054;-70
2021/12/17 10:33:50;;;;;;;15.20;7.03;;;8.50;99.90;;;;;;5035683;28;20082;-70
2021/12/17 10:36:15;;;;;;;13.82;6.90;;;8.60;99.90;;;;;;5039072;28;20065;-70
2021/12/17 10:38:44;;;;;;;15.38;6.97;;;8.60;99.90;;;;;;5053112;28;20108;-70
2021/12/17 10:41:14;;;;;;;16.17;7.22;;;8.60;99.90;;;;;;5038344;28;20045;-70
2021/12/17 10:43:49;;;;;;;17.98;7.82;;;8.70;99.90;;;;;;5038552;28;20050;-70
2021/12/17 10:46:27;;;;;;;17.83;8.45;;;8.70;99.90;;;;;;5068769;28;20129;-70
2021/12/17 10:49:02;;;;;;;17.35;8.30;;;8.70;99.90;;;;;;5038022;28;20041;-70
2021/12/17 10:54:06;;;;;;;16.58;7.28;;;8.70;99.90;;;;;;5070996;28;20045;-71
2021/12/17 10:56:35;;;;;;;14.82;7.60;;;8.50;99.90;;;;;;5037903;28;20421;-71
2021/12/17 10:59:04;;;;;;;15.88;7.60;;;8.70;99.90;;;;;;5035759;28;20172;-70
2021/12/17 11:01:45;;;;;;;14.85;7.55;;;8.70;99.90;;;;;;5038225;28;20081;-70
2021/12/17 11:04:23;;;;;;;15.32;6.95;;;8.70;99.90;;;;;;5035854;28;20049;-70
2021/12/17 11:06:59;;;;;;;16.92;7.93;;;8.70;99.90;;;;;;5037494;28;20450;-70
2021/12/17 11:09:34;;;;;;;16.48;7.60;;;8.70;99.90;;;;;;5037622;28;20045;-70
2021/12/17 11:12:29;;;;;;;15.73;7.87;;;8.80;99.90;;;;;;5034459;28;20060;-70
2021/12/17 11:15:22;;;;;;;13.40;7.25;;;8.80;99.90;;;;;;5037292;28;21015;-70
2021/12/17 11:17:52;;;;;;;16.52;7.07;;;8.80;99.90;;;;;;5021031;28;20041;-70
2021/12/17 11:20:25;;;;;;;12.65;6.82;;;8.80;99.90;;;;;;5036559;28;20049;-70
2021/12/17 11:22:52;;;;;;;16.13;7.82;;;8.80;99.90;;;;;;5037721;28;20099;-70
2021/12/17 11:25:19;;;;;;;17.08;8.25;;;8.90;99.90;;;;;;5067145;28;20521;-70
2021/12/17 11:27:46;;;;;;;16.48;8.77;;;8.90;99.90;;;;;;5039232;28;20084;-70
2021/12/17 11:30:24;;;;;;;14.45;7.88;;;8.90;99.90;;;;;;5069043;28;20076;-70
2021/12/17 11:32:51;;;;;;;16.60;8.23;;;9.00;99.90;;;;;;5035495;28;20068;-70
2021/12/17 11:35:21;;;;;;;16.17;8.05;;;9.00;99.90;;;;;;5054505;28;20485;-70
2021/12/17 11:37:50;;;;;;;14.27;7.57;;;9.00;99.90;;;;;;5035030;28;20049;-70
2021/12/17 11:40:26;;;;;;;16.17;8.50;;;9.00;99.90;;;;;;5036691;28;20042;-70
2021/12/17 11:43:15;;;;;;;17.63;7.82;;;9.10;99.90;;;;;;5035437;28;20056;-70
2021/12/17 11:45:42;;;;;;;14.88;7.70;;;9.10;99.90;;;;;;5036131;28;20057;-70
2021/12/17 11:48:19;;;;;;;18.15;7.15;;;9.10;99.90;;;;;;5036878;28;20184;-70
2021/12/17 11:50:47;;;;;;;14.60;7.60;;;9.10;99.90;;;;;;5051032;28;20053;-70
2021/12/17 11:53:32;;;;;;;19.42;8.52;;;9.10;99.90;;;;;;5071106;28;20077;-70
2021/12/17 11:56:01;;;;;;;15.52;7.93;;;9.20;99.90;;;;;;5035385;28;20046;-70
2021/12/17 11:58:53;;;;;;;15.93;7.78;;;9.20;99.90;;;;;;5037461;28;20054;-70
2021/12/17 12:02:00;;;;;;;13.77;8.13;;;9.10;99.90;;;;;;5036965;28;20151;-70
2021/12/17 12:04:32;;;;;;;15.23;7.97;;;9.10;99.90;;;;;;5035389;28;20053;-70
2021/12/17 12:07:33;;;;;;;14.05;7.97;;;9.10;99.90;;;;;;5035825;28;20046;-70
2021/12/17 12:10:00;;;;;;;15.82;7.63;;;9.10;99.90;;;;;;4985140;28;20308;-70
2021/12/17 12:12:28;;;;;;;13.98;8.18;;;9.10;99.90;;;;;;5014110;28;20054;-70
2021/12/17 12:15:15;;;;;;;14.15;7.60;;;9.10;99.90;;;;;;5017148;28;20054;-70
2021/12/17 12:18:03;;;;;;;16.95;7.45;;;9.10;99.90;;;;;;5049101;28;20219;-70
2021/12/17 12:20:50;;;;;;;16.52;7.07;;;9.20;99.90;;;;;;5047562;28;20042;-70
2021/12/17 12:23:36;;;;;;;16.48;7.65;;;9.10;99.90;;;;;;5051604;28;20050;-70
2021/12/17 12:26:07;;;;;;;16.20;7.43;;;9.60;99.90;;;;;;5021437;28;20058;-71
2021/12/17 12:28:45;;;;;;;16.70;7.95;;;9.20;99.90;;;;;;5053096;28;20470;-71
2021/12/17 12:31:12;;;;;;;15.13;7.95;;;9.20;99.90;;;;;;5055814;28;20054;-70
2021/12/17 12:34:00;;;;;;;16.15;7.65;;;9.20;99.90;;;;;;5039647;28;20042;-70
2021/12/17 12:36:44;;;;;;;15.20;7.43;;;9.20;99.90;;;;;;5042192;28;20128;-70
2021/12/17 12:39:17;;;;;;;21.15;9.52;;;9.30;99.90;;;;;;5023979;28;20064;-70
2021/12/17 12:42:06;;;;;;;14.93;7.70;;;9.30;99.90;;;;;;5070627;28;20049;-71
2021/12/17 12:44:44;;;;;;;15.27;7.55;;;9.30;99.90;;;;;;5042573;28;20056;-71
2021/12/17 12:47:15;;;;;;;17.35;7.57;;;9.30;99.90;;;;;;5038464;28;20060;-71
2021/12/17 12:49:50;;;;;;;14.57;7.30;;;9.30;99.90;;;;;;5039611;28;20037;-71
2021/12/17 12:52:32;;;;;;;15.80;6.97;;;9.30;99.90;;;;;;5057272;28;20049;-70
2021/12/17 12:55:01;;;;;;;11.73;5.95;;;9.30;99.90;;;;;;5037649;28;20512;-71
2021/12/17 12:57:39;;;;;;;10.88;6.05;;;9.30;99.90;;;;;;5040523;28;20033;-70
2021/12/17 13:00:16;;;;;;;13.38;6.35;;;9.30;99.90;;;;;;5071783;28;20100;-70
2021/12/17 13:02:43;;;;;;;12.52;6.90;;;9.30;99.90;;;;;;5039127;28;20109;-71
2021/12/17 13:05:11;;;;;;;11.45;5.93;;;9.30;99.90;;;;;;5039813;28;20045;-70
2021/12/17 13:07:39;;;;;;;10.15;5.70;;;9.30;99.90;;;;;;5038999;28;20035;-71
2021/12/17 13:10:22;;;;;;;11.68;6.13;;;9.30;99.90;;;;;;5037469;28;20037;-71
2021/12/17 13:13:00;;;;;;;10.68;5.30;;;9.30;99.90;;;;;;5037925;28;20112;-71
2021/12/17 13:23:21;;;;;;;;;;;9.30;99.90;;;;;;5021886;28;20054;-71
2021/12/17 13:26:07;;;;;;;9.70;5.57;;;9.30;99.90;;;;;;5019753;28;19921;-71
2021/12/17 13:29:11;;;;;;;9.10;4.83;;;9.30;99.90;;;;;;5037726;28;20551;-71
2021/12/17 13:31:37;;;;;;;9.65;4.60;;;9.30;99.90;;;;;;5039039;28;20057;-71
2021/12/17 13:34:17;;;;;;;9.65;4.70;;;9.20;99.90;;;;;;5036620;28;20053;-70
2021/12/17 13:37:08;;;;;;;10.73;5.07;;;9.30;99.90;;;;;;5022800;28;20049;-70
2021/12/17 13:39:53;;;;;;;9.50;4.53;;;9.30;99.90;;;;;;5039025;28;20424;-70
2021/12/17 13:42:22;;;;;;;7.77;4.13;;;9.30;99.90;;;;;;5036801;28;20045;-70
2021/12/17 13:44:53;;;;;;;9.98;4.78;;;9.30;99.90;;;;;;5039398;28;20528;-70
2021/12/17 13:47:22;;;;;;;8.90;4.53;;;9.40;99.90;;;;;;5037849;28;20053;-70
2021/12/17 13:49:52;;;;;;;8.95;4.00;;;9.40;99.90;;;;;;5037985;28;20080;-70
2021/12/17 13:52:22;;;;;;;6.07;3.47;;;9.40;99.90;;;;;;5040727;28;20053;-70
2021/12/17 13:54:49;;;;;;;6.53;3.05;;;9.40;99.90;;;;;;5037921;28;20451;-70
2021/12/17 13:57:17;;;;;;;6.53;3.20;;;9.40;99.90;;;;;;5055896;28;20124;-70
2021/12/17 13:59:44;;;;;;;6.75;3.30;;;9.30;99.90;;;;;;5037671;28;20036;-70
2021/12/17 14:02:19;;;;;;;5.85;3.10;;;9.40;99.90;;;;;;5038908;28;20071;-70
2021/12/17 14:05:06;;;;;;;6.68;2.90;;;9.40;99.90;;;;;;5035769;28;20401;-70
2021/12/17 14:07:34;;;;;;;4.82;3.08;;;9.30;99.90;;;;;;5036350;28;20053;-70
2021/12/17 14:10:06;;;;;;;4.88;2.63;;;9.30;99.90;;;;;;5072039;28;20049;-70
2021/12/17 14:12:37;;;;;;;5.38;2.60;;;9.30;99.90;;;;;;5051181;28;20134;-70
2021/12/17 14:15:27;;;;;;;4.47;2.58;;;9.30;99.90;;;;;;5036859;28;20055;-70
2021/12/17 14:18:06;;;;;;;4.35;2.22;;;9.30;99.90;;;;;;5038176;28;20064;-70
2021/12/17 14:20:44;;;;;;;4.75;2.03;;;9.30;99.90;;;;;;5036078;28;20120;-70
2021/12/17 14:23:12;;;;;;;3.78;2.00;;;9.30;99.90;;;;;;5038981;28;20132;-70
2021/12/17 14:25:50;;;;;;;3.60;1.75;;;9.20;99.90;;;;;;5036811;28;20081;-69
2021/12/17 14:28:15;;;;;;;3.92;1.90;;;9.20;99.90;;;;;;5039076;28;20056;-69
2021/12/17 14:30:44;;;;;;;3.00;1.65;;;9.20;99.90;;;;;;5037871;28;20045;-69
2021/12/17 14:33:16;;;;;;;3.70;1.80;;;9.20;99.90;;;;;;5037004;28;20052;-69
2021/12/17 14:36:06;;;;;;;4.38;2.30;;;9.20;99.90;;;;;;5055704;28;20046;-69
2021/12/17 14:38:45;;;;;;;3.88;2.05;;;9.20;99.90;;;;;;5037743;28;20056;-69
2021/12/17 14:41:28;;;;;;;3.45;1.80;;;9.20;99.90;;;;;;5036557;28;20056;-70
2021/12/17 14:44:00;;;;;;;4.00;1.90;;;9.20;99.90;;;;;;5055275;28;20065;-69
2021/12/17 14:46:37;;;;;;;3.70;2.10;;;9.10;99.90;;;;;;5035931;28;20041;-69
2021/12/17 14:49:30;;;;;;;3.65;2.10;;;9.10;99.90;;;;;;5038404;28;20084;-70
2021/12/17 15:05:20;;;;;;;3.88;1.95;;;9.00;99.90;;;;;;5039558;28;19925;-69
2021/12/17 15:07:46;;;;;;;4.10;2.20;;;9.00;99.90;;;;;;5034545;28;20509;-70
2021/12/17 15:10:15;;;;;;;3.35;1.90;;;9.00;99.90;;;;;;5053114;28;20033;-70
2021/12/17 15:12:40;;;;;;;6.88;3.78;;;9.00;99.90;;;;;;5056485;28;20508;-69
2021/12/17 15:15:12;;;;;;;11.55;7.07;;;9.00;99.90;;;;;;5057097;28;20532;-70
2021/12/17 15:17:38;;;;;;;10.85;6.03;;;9.00;99.90;;;;;;5058472;28;20045;-69
2021/12/17 15:20:07;;;;;;;6.22;3.65;;;9.00;99.90;;;;;;5055616;28;20049;-70
2021/12/17 15:22:32;;;;;;;5.13;3.10;;;9.00;99.90;;;;;;5059262;28;20049;-70
2021/12/17 15:24:58;;;;;;;4.45;3.05;;;9.00;99.90;;;;;;5019158;28;20041;-70
2021/12/17 15:27:24;;;;;;;5.93;3.72;;;9.00;99.90;;;;;;5037745;28;20045;-70
2021/12/17 15:29:50;;;;;;;7.82;4.28;;;9.00;99.90;;;;;;5051658;28;20103;-70
2021/12/17 15:32:16;;;;;;;7.70;3.75;;;9.00;99.90;;;;;;5068829;28;20037;-70
2021/12/17 15:34:41;;;;;;;7.22;4.10;;;9.00;99.90;;;;;;5053284;28;20041;-69
2021/12/17 15:37:07;;;;;;;7.40;3.90;;;9.00;99.90;;;;;;5035972;28;20056;-70
2021/12/17 15:39:33;;;;;;;7.25;3.92;;;9.00;99.90;;;;;;5038980;28;20098;-69
2021/12/17 15:41:59;;;;;;;8.38;3.80;;;9.00;99.90;;;;;;5035672;28;20076;-70
2021/12/17 15:44:24;;;;;;;7.22;3.65;;;9.00;99.90;;;;;;5037709;28;20575;-69
2021/12/17 15:46:51;;;;;;;7.25;4.20;;;8.90;99.90;;;;;;5034991;28;20049;-69
2021/12/17 15:49:16;;;;;;;7.22;3.78;;;8.90;99.90;;;;;;5037130;28;20046;-70
2021/12/17 15:51:42;;;;;;;6.78;3.90;;;9.00;99.90;;;;;;5036011;28;20030;-69
2021/12/17 15:54:08;;;;;;;6.40;3.80;;;9.00;99.90;;;;;;5036368;28;20050;-70
2021/12/17 15:56:34;;;;;;;7.90;4.45;;;9.00;99.90;;;;;;5037089;28;20049;-69
2021/12/17 15:59:01;;;;;;;7.20;3.92;;;9.00;99.90;;;;;;5035203;28;20393;-70
2021/12/17 16:01:27;;;;;;;7.78;4.25;;;9.00;99.90;;;;;;5038317;28;20096;-70
2021/12/17 16:03:53;;;;;;;7.45;4.95;;;9.00;99.90;;;;;;5034339;28;20072;-68
2021/12/17 16:06:20;;;;;;;8.93;4.63;;;9.00;99.90;;;;;;5037531;28;20484;-70
2021/12/17 16:08:50;;;;;;;7.60;4.47;;;9.00;99.90;;;;;;5035599;28;20087;-70
2021/12/17 16:21:56;;;;;;;8.52;4.65;;;9.00;99.90;;;;;;5032409;28;20048;-71
2021/12/17 16:24:22;;;;;;;10.15;4.88;;;9.00;99.90;;;;;;5035044;28;20059;-71
2021/12/17 16:26:48;;;;;;;7.13;4.47;;;9.00;99.90;;;;;;5036791;28;20064;-71
2021/12/17 16:29:18;;;;;;;8.20;4.60;;;9.00;99.90;;;;;;5033014;28;20045;-71
2021/12/17 16:31:45;;;;;;;8.85;4.10;;;8.90;99.90;;;;;;5041225;28;20046;-72